Bowmanville, Canada
Current Conditions -  °F | °C
As of 12:26 PM on Sunday 23 Nov 2014 (Local Time) from CYOO Reporting Station
Light Rain Light Rain  
Wind Chill:   Ceiling: 1200
Heat Index:   Visibility: 9mi
Dew Point:   Wind: 10mph
Humidity: 93%   Direction: 210°SSW
Pressure: 29.99"   Gusts: 18mph
Location:  43.91°N, 78.69°W
Report Text: CYOO 231726Z AUTO 21009G16KT 9SM -RA BKN012 OVC032 07/06 A2999 RMK SLP160
Loading
Personal Weather Stations






























Interactive Weather Map New forecast layout! Learn more

10-Day Weather Forecast

Advertisements
Track Severe Weather on mobile